Time;durP1;ratioP1;P1;durP2;ratioP2;P2;SDS_P1;SDS_P2;PMS_P1;PMS_P2;Temp;Humidity;BMP_temperature;BMP_pressure;BME280_temperature;BME280_humidity;BME280_pressure;Samples;Min_cycle;Max_cycle;Signal;HPM_P1;HPM_P2
2022/09/23 00:01:17;;;;;;;10.95;9.02;;;;;;;13.04;71.96;101817.63;5021770;28;20032;-68
2022/09/23 00:03:44;;;;;;;13.25;9.13;;;;;;;12.98;71.74;101815.72;5023669;28;20051;-67
2022/09/23 00:06:13;;;;;;;12.05;8.45;;;;;;;13.01;71.97;101820.13;5025304;28;20512;-67
2022/09/23 00:08:39;;;;;;;10.90;8.95;;;;;;;12.95;71.97;101818.22;5024947;28;20025;-67
2022/09/23 00:11:08;;;;;;;10.63;8.70;;;;;;;12.93;71.97;101811.28;5027490;28;20035;-67
2022/09/23 00:13:35;;;;;;;;;;;;;;;13.22;70.41;101814.81;5026993;28;20037;-68
2022/09/23 00:16:05;;;;;;;11.90;8.50;;;;;;;13.03;71.74;101813.31;5000385;28;19925;-67
2022/09/23 00:18:31;;;;;;;13.25;9.18;;;;;;;12.88;71.96;101801.66;5021986;28;20032;-67
2022/09/23 00:20:57;;;;;;;14.32;9.43;;;;;;;12.91;71.95;101812.91;5000414;28;21461;-67
2022/09/23 00:23:22;;;;;;;14.80;9.05;;;;;;;12.85;72.24;101806.69;5024965;28;20033;-67
2022/09/23 00:25:58;;;;;;;11.50;8.82;;;;;;;12.86;72.23;101807.56;5025373;28;20033;-67
2022/09/23 00:28:23;;;;;;;13.50;8.80;;;;;;;12.81;72.36;101804.88;5027634;28;20132;-67
2022/09/23 00:30:49;;;;;;;12.88;8.90;;;;;;;12.78;72.17;101802.16;5024225;28;20112;-67
2022/09/23 00:33:14;;;;;;;12.32;9.15;;;;;;;12.77;72.28;101795.25;5027685;28;20133;-67
2022/09/23 00:35:40;;;;;;;12.48;9.05;;;;;;;12.76;72.37;101792.63;5002609;28;20108;-67
2022/09/23 00:38:05;;;;;;;12.80;9.27;;;;;;;12.75;72.00;101790.88;5027817;28;20029;-67
2022/09/23 00:40:31;;;;;;;12.65;9.30;;;;;;;12.75;71.89;101791.75;5025343;28;20472;-67
2022/09/23 00:42:57;;;;;;;10.65;8.82;;;;;;;12.79;71.69;101783.28;5025654;28;20068;-67
2022/09/23 00:45:22;;;;;;;11.02;9.25;;;;;;;12.77;71.50;101794.38;5025591;28;20120;-67
2022/09/23 00:48:00;;;;;;;15.18;9.55;;;;;;;12.81;71.56;101791.09;5001262;28;20632;-67
2022/09/23 00:50:42;;;;;;;12.20;9.00;;;;;;;12.79;71.60;101782.41;5025554;28;20075;-67
2022/09/23 00:53:12;;;;;;;11.45;8.77;;;;;;;12.74;71.58;101778.78;5025473;28;20388;-67
2022/09/23 00:55:51;;;;;;;9.82;8.35;;;;;;;12.74;71.26;101781.34;5025242;28;20025;-67
2022/09/23 00:58:20;;;;;;;12.93;9.02;;;;;;;12.73;71.26;101783.06;5027385;28;20032;-67
2022/09/23 01:00:46;;;;;;;12.05;8.95;;;;;;;12.67;71.30;101781.97;5025692;28;20065;-67
2022/09/23 01:03:12;;;;;;;13.35;8.70;;;;;;;12.64;71.66;101781.88;5025829;28;20111;-67
2022/09/23 01:05:38;;;;;;;11.27;8.95;;;;;;;12.60;71.95;101774.03;5023894;28;20040;-67
2022/09/23 01:08:06;;;;;;;12.10;8.45;;;;;;;12.50;71.76;101779.72;5023770;28;20018;-67
2022/09/23 01:10:55;;;;;;;13.32;9.13;;;;;;;12.67;71.30;101777.69;5026021;28;20438;-67
2022/09/23 01:13:31;;;;;;;12.32;8.38;;;;;;;12.61;71.77;101780.94;5026406;28;20381;-67
2022/09/23 01:16:17;;;;;;;12.23;8.82;;;;;;;12.60;71.72;101778.31;5023058;28;20049;-67
2022/09/23 01:18:56;;;;;;;16.63;9.23;;;;;;;12.54;71.56;101776.41;5024904;28;20025;-67
2022/09/23 01:21:30;;;;;;;11.73;9.07;;;;;;;12.49;71.65;101772.78;5026457;28;20120;-67
2022/09/23 01:24:07;;;;;;;10.27;8.15;;;;;;;12.48;71.68;101777.88;5026339;28;20351;-67
2022/09/23 01:26:57;;;;;;;11.10;8.80;;;;;;;12.58;71.35;101782.56;5022960;28;20033;-67
2022/09/23 01:29:26;;;;;;;11.20;8.15;;;;;;;12.40;71.78;101782.78;5025346;28;20013;-67
2022/09/23 01:32:01;;;;;;;11.60;8.55;;;;;;;12.39;71.39;101770.72;5025977;28;20044;-67
2022/09/23 01:34:46;;;;;;;14.32;8.60;;;;;;;12.44;71.61;101771.75;5022320;28;20017;-67
2022/09/23 01:37:25;;;;;;;11.35;8.23;;;;;;;12.47;71.16;101766.69;5024654;28;20043;-67
2022/09/23 01:40:05;;;;;;;11.23;8.25;;;;;;;12.43;71.56;101762.25;5024283;28;20037;-67
2022/09/23 01:42:38;;;;;;;10.55;8.10;;;;;;;12.36;71.43;101765.44;5007269;28;20071;-67
2022/09/23 01:45:28;;;;;;;10.75;7.75;;;;;;;12.35;71.48;101763.69;5022679;28;20117;-67
2022/09/23 01:48:00;;;;;;;12.02;8.32;;;;;;;12.31;71.71;101772.13;5024428;28;20038;-67
2022/09/23 01:53:44;;;;;;;12.65;8.23;;;;;;;12.32;71.79;101769.63;5025704;28;20048;-67
2022/09/23 01:56:19;;;;;;;12.25;8.25;;;;;;;12.33;71.49;101758.50;5010872;28;20116;-67
2022/09/23 01:59:20;;;;;;;9.90;7.43;;;;;;;12.37;71.42;101759.44;5024502;28;20017;-67
2022/09/23 02:02:30;;;;;;;11.48;7.70;;;;;;;12.39;71.38;101765.56;5024322;28;20022;-67
2022/09/23 02:04:59;;;;;;;12.93;7.63;;;;;;;12.21;72.29;101758.06;4976985;28;20052;-67
2022/09/23 02:07:47;;;;;;;12.63;8.13;;;;;;;12.31;71.64;101760.13;5024960;28;20036;-67
2022/09/23 02:10:24;;;;;;;10.97;8.30;;;;;;;12.25;71.66;101759.03;5008559;28;20098;-67
2022/09/23 02:12:56;;;;;;;11.48;8.38;;;;;;;12.16;72.13;101751.84;5023801;28;20041;-67
2022/09/23 02:15:27;;;;;;;10.93;7.80;;;;;;;12.16;72.23;101754.44;5023505;28;20124;-67
2022/09/23 02:17:58;;;;;;;11.77;8.35;;;;;;;12.13;72.30;101754.31;5024222;28;20372;-67
2022/09/23 02:20:34;;;;;;;13.68;7.95;;;;;;;12.13;72.51;101745.69;5005878;28;20029;-67
2022/09/23 02:23:29;;;;;;;10.88;8.00;;;;;;;12.12;72.22;101749.97;5024818;28;20030;-67
2022/09/23 02:26:28;;;;;;;11.60;8.20;;;;;;;12.17;72.02;101748.44;5021880;28;20067;-67
2022/09/23 02:28:57;;;;;;;13.73;8.35;;;;;;;12.03;72.69;101739.34;5007200;28;20084;-67
2022/09/23 02:31:44;;;;;;;11.60;7.93;;;;;;;12.13;72.27;101740.53;5005124;28;20055;-67
2022/09/23 02:34:15;;;;;;;13.38;8.30;;;;;;;12.01;72.85;101733.25;5024687;28;20049;-67
2022/09/23 02:37:19;;;;;;;15.10;8.68;;;;;;;12.04;72.35;101726.50;5022262;28;20029;-67
2022/09/23 02:40:06;;;;;;;10.70;7.55;;;;;;;11.96;73.04;101721.91;5022122;28;20033;-67
2022/09/23 02:42:45;;;;;;;10.25;7.93;;;;;;;11.96;73.02;101722.78;5024193;28;20024;-67
2022/09/23 02:45:10;;;;;;;14.38;8.27;;;;;;;11.93;73.04;101726.94;5023412;28;20502;-67
2022/09/23 02:47:39;;;;;;;11.35;7.57;;;;;;;11.87;73.14;101719.88;5023878;28;20025;-67
2022/09/23 02:50:05;;;;;;;12.40;8.07;;;;;;;11.88;73.22;101718.16;5024746;28;20029;-67
2022/09/23 02:52:32;;;;;;;11.35;8.25;;;;;;;11.87;73.36;101717.28;5023594;28;20033;-67
2022/09/23 02:54:59;;;;;;;11.18;7.95;;;;;;;11.83;73.44;101715.44;5000802;28;20915;-67
2022/09/23 02:57:25;;;;;;;11.32;8.15;;;;;;;11.80;73.48;101708.44;5024254;28;20030;-67
2022/09/23 02:59:50;;;;;;;13.18;7.90;;;;;;;11.82;73.27;101709.38;5022475;28;20098;-67
2022/09/23 03:03:00;;;;;;;15.25;8.30;;;;;;;11.92;72.84;101707.16;5021950;28;20141;-67
2022/09/23 03:05:30;;;;;;;10.27;8.02;;;;;;;11.81;73.61;101705.06;4999241;28;20037;-67
2022/09/23 03:08:24;;;;;;;8.93;8.00;;;;;;;11.85;72.96;101694.88;5023957;28;20046;-67
2022/09/23 03:10:55;;;;;;;10.02;8.20;;;;;;;11.80;73.55;101694.66;5022977;28;20049;-67
2022/09/23 03:13:52;;;;;;;14.50;7.97;;;;;;;11.80;73.14;101699.81;5023762;28;20488;-67
2022/09/23 03:16:20;;;;;;;11.43;7.63;;;;;;;11.76;73.42;101700.53;5005876;28;20128;-67
2022/09/23 03:18:56;;;;;;;10.85;8.10;;;;;;;11.75;73.53;101696.19;5023694;28;20465;-68
2022/09/23 03:21:34;;;;;;;12.32;8.20;;;;;;;11.70;73.36;101690.88;5022955;28;20037;-67
2022/09/23 03:24:04;;;;;;;10.48;8.07;;;;;;;11.68;73.61;101689.06;5021617;28;20087;-68
2022/09/23 03:26:34;;;;;;;12.60;7.82;;;;;;;11.59;73.80;101684.47;5023572;28;20045;-68
2022/09/23 03:29:08;;;;;;;11.13;8.60;;;;;;;11.60;73.93;101686.22;5023576;28;20044;-68
2022/09/23 03:31:35;;;;;;;9.18;7.80;;;;;;;11.53;73.61;101687.69;4994740;28;20037;-68
2022/09/23 03:34:04;;;;;;;12.60;8.05;;;;;;;11.51;74.03;101691.00;5022328;28;20026;-68
2022/09/23 03:36:50;;;;;;;15.07;8.10;;;;;;;11.57;73.86;101692.94;5023727;28;20401;-68
2022/09/23 03:39:41;;;;;;;13.07;8.13;;;;;;;11.59;73.96;101683.56;5023549;28;20029;-68
2022/09/23 03:42:17;;;;;;;9.48;7.82;;;;;;;11.50;74.30;101694.41;5027381;28;20447;-68
2022/09/23 03:44:46;;;;;;;8.82;7.68;;;;;;;11.47;74.36;101695.19;5026143;28;20022;-68
2022/09/23 03:47:14;;;;;;;11.40;7.93;;;;;;;11.43;74.69;101692.44;5010743;28;20033;-68
2022/09/23 03:49:43;;;;;;;10.80;7.60;;;;;;;11.37;74.83;101689.63;5027574;28;20029;-68
2022/09/23 03:52:09;;;;;;;10.82;8.23;;;;;;;11.34;74.83;101692.94;5026538;28;20026;-68
2022/09/23 03:54:35;;;;;;;9.15;7.70;;;;;;;11.28;74.69;101682.41;5006805;28;20056;-68
2022/09/23 03:57:01;;;;;;;11.05;7.70;;;;;;;11.26;74.97;101681.50;5009079;28;20061;-68
2022/09/23 03:59:29;;;;;;;11.05;8.20;;;;;;;11.27;75.22;101683.25;5027540;28;20260;-68
2022/09/23 04:01:55;;;;;;;11.15;8.90;;;;;;;11.26;75.56;101679.78;5008595;28;20028;-68
2022/09/23 04:04:21;;;;;;;11.27;8.02;;;;;;;11.22;75.37;101675.38;5026421;28;20045;-68
2022/09/23 04:06:46;;;;;;;10.07;8.05;;;;;;;11.26;75.18;101679.78;5009425;28;20358;-68
2022/09/23 04:09:12;;;;;;;13.65;8.68;;;;;;;11.27;75.20;101681.53;5027426;28;20032;-68
2022/09/23 04:11:37;;;;;;;10.73;7.78;;;;;;;11.27;74.84;101676.38;5027614;28;20052;-68
2022/09/23 04:14:03;;;;;;;9.80;7.63;;;;;;;11.25;74.92;101675.47;5027384;28;20046;-68
2022/09/23 04:16:28;;;;;;;11.35;8.13;;;;;;;11.23;74.90;101676.25;5026864;28;20033;-68
2022/09/23 04:18:53;;;;;;;9.65;8.23;;;;;;;11.21;75.04;101672.72;5027090;28;20039;-68
2022/09/23 04:21:19;;;;;;;10.27;7.70;;;;;;;11.23;75.14;101676.25;5027427;28;21593;-68
2022/09/23 04:23:47;;;;;;;11.20;7.88;;;;;;;11.21;74.99;101677.84;5001189;28;20017;-68
2022/09/23 04:26:13;;;;;;;10.52;7.63;;;;;;;11.17;75.17;101678.56;5026275;28;20072;-68
2022/09/23 04:28:39;;;;;;;13.15;7.65;;;;;;;11.15;75.29;101675.03;5025802;28;20021;-68
2022/09/23 04:31:06;;;;;;;10.45;7.65;;;;;;;11.14;75.14;101676.75;5027231;28;20033;-68
2022/09/23 04:33:32;;;;;;;12.75;8.00;;;;;;;11.14;75.27;101676.75;5029199;28;20503;-68
2022/09/23 04:35:57;;;;;;;13.23;7.70;;;;;;;11.13;75.29;101671.53;5024894;28;20056;-68
2022/09/23 04:38:23;;;;;;;11.35;7.68;;;;;;;11.13;75.29;101671.53;5025742;28;20403;-68
2022/09/23 04:40:48;;;;;;;9.48;7.60;;;;;;;11.09;75.32;101670.53;5000689;28;20042;-67
2022/09/23 04:43:15;;;;;;;9.27;7.35;;;;;;;11.08;75.31;101678.22;5026932;28;20044;-68
2022/09/23 04:45:43;;;;;;;8.50;7.18;;;;;;;11.09;75.29;101674.81;5026491;28;20040;-68
2022/09/23 04:48:10;;;;;;;11.73;8.00;;;;;;;11.05;75.46;101678.97;5025263;28;20068;-68
2022/09/23 04:50:36;;;;;;;12.07;7.90;;;;;;;10.99;76.03;101669.31;5026422;28;20287;-68
2022/09/23 04:53:02;;;;;;;10.45;7.70;;;;;;;10.98;76.00;101669.22;5022360;28;20577;-68
2022/09/23 04:55:28;;;;;;;9.65;7.72;;;;;;;10.96;76.07;101663.16;5008125;28;20120;-68
2022/09/23 04:57:54;;;;;;;12.90;8.05;;;;;;;10.98;76.20;101664.09;5025640;28;20047;-68
2022/09/23 05:00:20;;;;;;;12.52;7.88;;;;;;;10.96;76.09;101663.16;5026842;28;20392;-68
2022/09/23 05:02:47;;;;;;;12.27;8.60;;;;;;;10.97;76.28;101660.63;5026703;28;20025;-68
2022/09/23 05:05:17;;;;;;;11.73;8.20;;;;;;;10.95;76.46;101653.69;5025913;28;20117;-68
2022/09/23 05:07:42;;;;;;;11.90;8.30;;;;;;;10.97;76.37;101655.50;5024252;28;20079;-68
2022/09/23 05:10:08;;;;;;;11.15;8.15;;;;;;;10.93;76.49;101652.75;5023282;28;20033;-68
2022/09/23 05:12:33;;;;;;;11.48;7.90;;;;;;;10.96;76.53;101652.88;5030080;28;20037;-68
2022/09/23 05:14:59;;;;;;;11.68;8.05;;;;;;;10.94;76.84;101651.94;5022795;28;20034;-67
2022/09/23 05:17:24;;;;;;;12.10;7.60;;;;;;;10.97;76.95;101660.63;5025603;28;20043;-68
2022/09/23 05:19:50;;;;;;;10.23;8.13;;;;;;;10.96;76.96;101661.47;5025281;28;20041;-68
2022/09/23 05:22:15;;;;;;;11.75;8.13;;;;;;;10.96;76.83;101664.03;5024778;28;20025;-67
2022/09/23 05:24:40;;;;;;;11.70;8.23;;;;;;;10.98;77.05;101662.41;5022960;28;20061;-68
2022/09/23 05:27:06;;;;;;;11.45;8.50;;;;;;;10.96;76.83;101663.16;5029114;28;20039;-67
2022/09/23 05:29:32;;;;;;;11.27;7.97;;;;;;;10.97;76.64;101665.78;5012724;28;20026;-68
2022/09/23 05:31:57;;;;;;;10.00;8.07;;;;;;;10.98;76.91;101664.09;5029418;28;20033;-68
2022/09/23 05:34:23;;;;;;;14.77;8.43;;;;;;;10.98;77.12;101661.50;5028262;28;20397;-67
2022/09/23 05:36:49;;;;;;;16.90;7.72;;;;;;;10.96;77.06;101669.19;5029791;28;20037;-68
2022/09/23 05:39:14;;;;;;;12.93;8.55;;;;;;;10.93;76.99;101674.22;5029765;28;20048;-68
2022/09/23 05:41:41;;;;;;;14.10;8.35;;;;;;;10.94;77.45;101678.56;4995401;28;20029;-67
2022/09/23 05:44:07;;;;;;;14.98;7.85;;;;;;;10.95;77.31;101676.84;5028656;28;20485;-68
2022/09/23 05:46:33;;;;;;;11.15;7.68;;;;;;;10.93;77.45;101679.38;5030554;28;20041;-68
2022/09/23 05:49:00;;;;;;;14.13;7.88;;;;;;;10.97;77.43;101676.06;5030038;28;20072;-67
2022/09/23 05:51:26;;;;;;;12.48;7.78;;;;;;;10.96;77.27;101678.59;5030107;28;20021;-68
2022/09/23 05:53:53;;;;;;;10.38;7.43;;;;;;;10.98;76.96;101674.38;5029525;28;20033;-68
2022/09/23 05:56:24;;;;;;;10.57;7.72;;;;;;;10.99;76.89;101679.63;5027951;28;20446;-68
2022/09/23 05:58:51;;;;;;;12.90;7.47;;;;;;;10.96;77.21;101678.59;5029786;28;20036;-68
2022/09/23 06:01:25;;;;;;;12.77;7.60;;;;;;;11.00;77.24;101676.22;5029734;28;20029;-68
2022/09/23 06:03:52;;;;;;;10.13;7.55;;;;;;;11.03;76.96;101683.16;5029581;28;20036;-68
2022/09/23 06:06:20;;;;;;;13.13;7.63;;;;;;;10.99;77.23;101686.47;5026981;28;20025;-68
2022/09/23 06:08:46;;;;;;;10.65;7.45;;;;;;;11.07;77.59;101681.59;5029279;28;20033;-68
2022/09/23 06:11:13;;;;;;;10.15;7.70;;;;;;;11.00;77.27;101673.66;5029528;28;20035;-67
2022/09/23 06:13:39;;;;;;;13.68;7.25;;;;;;;11.07;76.83;101677.34;5028972;28;20029;-68
2022/09/23 06:16:09;;;;;;;10.82;7.30;;;;;;;11.10;77.06;101671.41;5028173;28;20053;-67
2022/09/23 06:18:38;;;;;;;14.80;7.75;;;;;;;11.11;77.25;101678.34;5029928;28;20443;-67
2022/09/23 06:21:04;;;;;;;12.27;7.40;;;;;;;11.13;77.36;101667.28;5029114;28;20030;-68
2022/09/23 06:23:30;;;;;;;10.60;7.32;;;;;;;11.14;76.84;101666.44;5029969;28;20046;-67
2022/09/23 06:26:00;;;;;;;11.23;7.57;;;;;;;11.17;77.26;101669.16;5026824;28;20420;-68
2022/09/23 06:28:30;;;;;;;14.02;7.53;;;;;;;11.19;77.00;101670.09;5027240;28;20049;-67
2022/09/23 06:31:00;;;;;;;11.63;7.97;;;;;;;11.18;77.46;101665.75;5029179;28;20018;-67
2022/09/23 06:33:26;;;;;;;10.25;7.50;;;;;;;11.21;77.51;101663.28;5029231;28;20021;-67
2022/09/23 06:35:59;;;;;;;10.45;7.60;;;;;;;11.26;77.02;101660.88;5029198;28;20454;-68
2022/09/23 06:38:25;;;;;;;15.13;7.47;;;;;;;11.26;76.82;101658.31;5026946;28;20044;-67
2022/09/23 06:40:53;;;;;;;13.57;7.40;;;;;;;11.22;77.60;101661.59;5028761;28;20029;-67
2022/09/23 06:43:20;;;;;;;10.98;7.38;;;;;;;11.23;77.23;101656.50;5028929;28;20118;-68
2022/09/23 06:45:45;;;;;;;11.65;7.88;;;;;;;11.28;77.33;101656.66;5011271;28;20044;-68
2022/09/23 06:48:11;;;;;;;12.43;7.47;;;;;;;11.30;77.35;101662.78;5028588;28;20037;-68
2022/09/23 06:50:36;;;;;;;10.90;7.38;;;;;;;11.34;77.16;101668.91;5027961;28;20040;-68
2022/09/23 06:53:02;;;;;;;9.93;7.15;;;;;;;11.32;77.44;101673.13;5027310;28;20025;-67
2022/09/23 06:55:27;;;;;;;12.73;7.53;;;;;;;11.38;78.03;101671.66;5011149;28;20420;-68
2022/09/23 06:57:56;;;;;;;10.55;7.30;;;;;;;11.42;77.83;101665.81;5028514;28;20052;-68
2022/09/23 07:00:23;;;;;;;9.32;7.00;;;;;;;11.42;77.11;101668.38;5028215;28;20103;-68
2022/09/23 07:02:48;;;;;;;9.73;7.85;;;;;;;11.46;77.74;101665.09;5027047;28;20060;-68
2022/09/23 07:05:16;;;;;;;11.95;7.53;;;;;;;11.39;77.75;101662.22;5027429;28;20064;-68
2022/09/23 07:07:44;;;;;;;10.55;7.40;;;;;;;11.44;77.83;101658.13;5028808;28;20030;-68
2022/09/23 07:10:11;;;;;;;13.35;7.88;;;;;;;11.45;78.05;101652.16;5027402;28;20033;-67
2022/09/23 07:12:36;;;;;;;10.50;7.53;;;;;;;11.45;76.79;101654.72;5028558;28;20040;-67
2022/09/23 07:15:03;;;;;;;12.98;8.05;;;;;;;11.54;77.42;101660.22;5026632;28;20386;-67
2022/09/23 07:17:29;;;;;;;15.27;7.78;;;;;;;11.59;77.41;101657.81;5014835;28;20468;-67
2022/09/23 07:19:54;;;;;;;11.05;7.45;;;;;;;11.61;77.17;101659.63;5032057;28;20025;-67
2022/09/23 07:22:21;;;;;;;14.52;7.93;;;;;;;11.65;76.56;101658.94;5011061;28;20129;-67
2022/09/23 07:24:46;;;;;;;12.60;8.30;;;;;;;11.72;76.95;101670.34;5032272;28;20040;-67
2022/09/23 07:27:16;;;;;;;12.07;8.00;;;;;;;11.72;77.73;101655.75;5032651;28;20436;-68
2022/09/23 07:29:50;;;;;;;10.43;7.93;;;;;;;11.80;77.24;101659.47;5026431;28;20454;-68
2022/09/23 07:32:20;;;;;;;13.38;8.32;;;;;;;11.85;77.91;101661.38;5031381;28;20025;-68
2022/09/23 07:34:46;;;;;;;11.43;8.02;;;;;;;11.91;78.62;101659.00;5031685;28;20026;-67
2022/09/23 07:37:13;;;;;;;17.30;7.63;;;;;;;11.98;78.29;101663.56;5032577;28;20366;-67
2022/09/23 07:39:40;;;;;;;11.98;7.85;;;;;;;12.01;78.10;101663.66;5032422;28;20021;-67
2022/09/23 07:42:05;;;;;;;11.02;7.68;;;;;;;12.08;78.47;101657.91;5030987;28;20453;-67
2022/09/23 07:44:32;;;;;;;13.27;8.27;;;;;;;12.12;77.73;101667.47;5031187;28;20572;-68
2022/09/23 07:46:58;;;;;;;13.05;8.07;;;;;;;12.16;78.58;101659.03;5031674;28;20057;-67
2022/09/23 07:49:25;;;;;;;16.85;9.15;;;;;;;12.18;78.12;101664.22;5031585;28;20026;-67
2022/09/23 07:51:51;;;;;;;14.60;8.10;;;;;;;12.26;78.44;101661.13;5032110;28;20036;-67
2022/09/23 07:54:17;;;;;;;14.55;8.07;;;;;;;12.35;78.07;101653.66;5029047;28;20029;-67
2022/09/23 07:56:43;;;;;;;16.38;7.95;;;;;;;12.40;76.94;101658.97;5032116;28;20035;-67
2022/09/23 07:59:17;;;;;;;11.15;8.25;;;;;;;12.51;78.32;101664.50;5032197;28;20026;-67
2022/09/23 08:01:46;;;;;;;13.55;8.15;;;;;;;12.57;78.18;101668.16;5031431;28;21016;-67
2022/09/23 08:04:20;;;;;;;13.75;8.15;;;;;;;12.62;77.64;101670.91;5032435;28;20538;-67
2022/09/23 08:06:52;;;;;;;11.98;7.88;;;;;;;12.66;77.34;101666.69;5028234;28;20037;-67
2022/09/23 08:09:20;;;;;;;12.48;8.18;;;;;;;12.68;77.46;101671.09;5028471;28;20028;-67
2022/09/23 08:11:45;;;;;;;16.52;7.68;;;;;;;12.69;77.99;101666.81;5031103;28;20120;-67
2022/09/23 08:14:13;;;;;;;13.05;7.85;;;;;;;12.77;77.38;101673.97;5032021;28;20600;-67
2022/09/23 08:16:39;;;;;;;10.50;8.18;;;;;;;12.80;77.70;101675.75;5024702;28;20040;-67
2022/09/23 08:19:05;;;;;;;13.00;7.55;;;;;;;12.85;77.67;101676.78;5030123;28;20048;-67
2022/09/23 08:21:31;;;;;;;14.27;7.60;;;;;;;12.85;77.04;101667.31;5030333;28;20428;-67
2022/09/23 08:23:57;;;;;;;12.68;7.82;;;;;;;12.93;76.29;101677.03;5012069;28;20025;-66
2022/09/23 08:26:22;;;;;;;13.25;7.70;;;;;;;12.97;76.50;101671.13;5030913;28;20384;-67
2022/09/23 08:28:55;;;;;;;10.75;7.40;;;;;;;13.03;76.53;101674.75;5031795;28;20108;-67
2022/09/23 08:31:21;;;;;;;12.65;7.43;;;;;;;13.06;77.00;101672.28;5029824;28;20129;-67
2022/09/23 08:33:47;;;;;;;12.77;8.05;;;;;;;13.11;77.34;101668.16;5031579;28;20033;-67
2022/09/23 08:36:13;;;;;;;10.13;6.90;;;;;;;13.17;77.05;101670.03;5029379;28;20055;-67
2022/09/23 08:38:38;;;;;;;11.48;7.63;;;;;;;13.23;77.31;101667.69;5030931;28;20029;-67
2022/09/23 08:41:03;;;;;;;10.68;7.50;;;;;;;13.27;77.47;101673.78;5029837;28;20033;-67
2022/09/23 08:43:31;;;;;;;10.95;7.65;;;;;;;13.29;76.55;101673.03;5031327;28;20427;-67
2022/09/23 08:46:01;;;;;;;11.02;6.85;;;;;;;13.34;76.13;101676.59;5029645;28;20378;-67
2022/09/23 08:48:41;;;;;;;12.25;7.13;;;;;;;13.40;76.41;101671.63;5031631;28;20087;-67
2022/09/23 08:51:12;;;;;;;10.77;7.10;;;;;;;13.45;76.68;101670.88;5029188;28;20036;-67
2022/09/23 08:53:39;;;;;;;9.95;7.07;;;;;;;13.52;76.33;101668.50;5024701;28;20025;-67
2022/09/23 08:56:11;;;;;;;12.27;7.40;;;;;;;13.55;76.42;101667.75;5028694;28;20038;-67
2022/09/23 08:59:15;;;;;;;10.13;6.82;;;;;;;13.63;74.95;101668.81;5027340;28;20029;-67
2022/09/23 09:01:50;;;;;;;11.80;7.07;;;;;;;13.68;75.07;101656.91;5025118;28;21635;-67
2022/09/23 09:04:19;;;;;;;11.07;6.97;;;;;;;13.74;73.68;101657.09;5029697;28;20455;-67
2022/09/23 09:07:05;;;;;;;9.80;6.55;;;;;;;13.82;74.50;101658.16;5012401;28;20029;-67
2022/09/23 09:09:47;;;;;;;9.35;6.57;;;;;;;13.90;73.70;101654.09;5030800;28;20391;-67
2022/09/23 09:12:19;;;;;;;8.73;6.85;;;;;;;13.93;74.81;101654.16;5014499;28;20054;-67
2022/09/23 09:15:03;;;;;;;11.23;6.47;;;;;;;14.07;73.54;101654.53;5029489;28;20050;-67
2022/09/23 09:17:37;;;;;;;13.55;6.47;;;;;;;14.12;72.77;101658.09;5030208;28;20108;-67
2022/09/23 09:20:17;;;;;;;10.43;6.80;;;;;;;14.20;73.40;101651.44;5030549;28;20676;-67
2022/09/23 09:22:59;;;;;;;12.02;6.90;;;;;;;14.28;74.53;101648.16;5029569;28;20024;-67
2022/09/23 09:25:30;;;;;;;9.68;6.25;;;;;;;14.35;72.82;101653.53;5028865;28;20072;-67
2022/09/23 09:27:56;;;;;;;11.60;6.38;;;;;;;14.42;72.38;101652.84;5030104;28;20061;-67
2022/09/23 09:30:21;;;;;;;11.75;6.07;;;;;;;14.51;71.85;101651.38;5030651;28;20076;-67
2022/09/23 09:33:02;;;;;;;11.88;6.35;;;;;;;14.57;73.32;101649.81;5029414;28;21153;-66
2022/09/23 09:35:49;;;;;;;12.55;6.60;;;;;;;14.63;71.93;101641.31;5029470;28;20025;-67
2022/09/23 09:38:15;;;;;;;11.23;6.38;;;;;;;14.70;73.31;101646.66;5029941;28;20053;-67
2022/09/23 09:40:46;;;;;;;11.40;6.63;;;;;;;14.78;72.69;101639.06;5029419;28;20057;-67
2022/09/23 09:43:25;;;;;;;10.55;6.47;;;;;;;14.86;72.37;101639.22;5025645;28;20053;-67
2022/09/23 09:46:07;;;;;;;10.60;6.63;;;;;;;14.92;73.02;101639.38;5027594;28;20097;-67
2022/09/23 09:48:49;;;;;;;12.00;7.32;;;;;;;14.97;72.27;101635.19;5027946;28;20029;-67
2022/09/23 09:51:20;;;;;;;11.63;6.43;;;;;;;15.02;70.77;101637.03;5029910;28;20024;-67
2022/09/23 09:53:46;;;;;;;12.23;6.05;;;;;;;15.06;70.44;101632.81;5023947;28;20045;-67
2022/09/23 09:56:17;;;;;;;11.50;5.85;;;;;;;15.13;71.33;101631.22;5030146;28;20024;-67
2022/09/23 09:58:54;;;;;;;10.10;5.82;;;;;;;15.18;70.84;101639.97;5061668;28;20402;-55
2022/09/23 10:01:24;;;;;;;11.35;5.90;;;;;;;15.22;70.54;101632.28;5043869;28;20428;-55
2022/09/23 10:03:52;;;;;;;11.15;5.80;;;;;;;15.29;68.70;101625.53;5043346;28;20084;-57
2022/09/23 10:06:23;;;;;;;11.30;5.80;;;;;;;15.36;69.69;101621.34;5045025;28;20079;-57
2022/09/23 10:09:09;;;;;;;7.93;5.60;;;;;;;15.42;68.70;101626.66;5041299;28;20033;-57
2022/09/23 10:11:35;;;;;;;9.23;5.38;;;;;;;15.42;68.38;101616.28;5046181;28;20036;-57
2022/09/23 10:14:17;;;;;;;10.35;5.93;;;;;;;15.50;68.74;101618.19;5045460;28;20028;-57
2022/09/23 10:16:45;;;;;;;9.77;5.70;;;;;;;15.56;67.37;101620.88;5047419;28;20029;-57
2022/09/23 10:19:25;;;;;;;8.32;5.78;;;;;;;15.65;67.95;101616.75;5046424;28;20131;-57
2022/09/23 10:21:55;;;;;;;9.13;5.30;;;;;;;15.70;67.32;101622.91;5037660;28;20579;-57
2022/09/23 10:24:24;;;;;;;9.38;5.28;;;;;;;15.77;66.43;101615.28;5051007;28;20029;-57
2022/09/23 10:27:06;;;;;;;8.07;4.55;;;;;;;15.86;66.37;101614.56;5060074;28;20061;-57
2022/09/23 10:29:47;;;;;;;9.68;4.80;;;;;;;15.87;66.37;101612.84;5051409;28;20025;-59
2022/09/23 10:32:21;;;;;;;7.55;5.00;;;;;;;15.92;65.91;101609.50;5052230;28;20028;-58
2022/09/23 10:35:14;;;;;;;6.10;4.50;;;;;;;15.93;67.15;101607.78;5047001;28;20175;-56
2022/09/23 10:37:48;;;;;;;7.18;4.78;;;;;;;16.01;65.17;101608.78;5045667;28;20398;-56
2022/09/23 10:46:40;;;;;;;7.93;4.43;;;;;;;16.12;64.38;101614.16;5050652;28;20534;-57
2022/09/23 10:49:24;;;;;;;9.20;3.90;;;;;;;16.17;64.56;101620.31;5048434;28;20033;-57
2022/09/23 10:52:08;;;;;;;7.18;3.83;;;;;;;16.21;65.63;101614.34;5041873;28;20036;-57
2022/09/23 10:54:55;;;;;;;6.25;3.45;;;;;;;16.22;65.11;101614.34;5044709;28;20029;-57
2022/09/23 10:57:45;;;;;;;5.97;3.88;;;;;;;16.28;64.86;101605.78;5039216;28;20049;-56
2022/09/23 11:00:21;;;;;;;5.65;3.92;;;;;;;16.29;63.04;101603.22;5035380;28;20021;-57
2022/09/23 11:03:16;;;;;;;7.03;4.30;;;;;;;16.33;63.39;101604.16;5050740;28;20017;-57
2022/09/23 11:06:00;;;;;;;8.27;4.05;;;;;;;16.36;63.70;101604.19;5040128;28;20418;-57
2022/09/23 11:08:31;;;;;;;7.53;4.35;;;;;;;16.40;62.77;101598.22;5041324;28;20033;-57
2022/09/23 11:11:34;;;;;;;6.80;3.88;;;;;;;16.44;62.55;101601.72;5035493;28;20033;-55
2022/09/23 11:14:37;;;;;;;7.68;3.50;;;;;;;16.53;62.52;101607.06;5011302;28;20109;-57
2022/09/23 11:17:37;;;;;;;10.43;3.88;;;;;;;16.56;62.70;101601.91;5005911;28;20065;-57
2022/09/23 11:20:22;;;;;;;5.63;3.78;;;;;;;16.58;62.75;101595.03;5036722;28;20045;-57
2022/09/23 11:23:17;;;;;;;5.68;3.65;;;;;;;16.65;63.56;101593.38;5033986;28;20030;-57
2022/09/23 11:25:50;;;;;;;7.85;3.70;;;;;;;16.67;62.76;101589.09;5041052;28;20190;-55
2022/09/23 11:28:37;;;;;;;9.00;3.95;;;;;;;16.70;61.72;101594.34;5038164;28;20020;-57
2022/09/23 11:31:13;;;;;;;11.13;3.80;;;;;;;16.79;60.00;101584.09;5035478;28;20441;-57
2022/09/23 11:34:00;;;;;;;6.75;3.47;;;;;;;16.86;59.11;101591.13;5040968;28;20539;-57
2022/09/23 11:36:31;;;;;;;6.18;3.28;;;;;;;16.92;60.61;101585.13;5033532;28;20086;-57
2022/09/23 11:39:00;;;;;;;9.60;3.40;;;;;;;16.97;60.62;101584.34;5025991;28;20032;-57
2022/09/23 11:41:31;;;;;;;6.57;3.67;;;;;;;17.01;58.92;101585.28;5035243;28;20495;-57
2022/09/23 11:44:04;;;;;;;5.53;3.15;;;;;;;17.04;59.14;101574.91;5031695;28;20481;-57
2022/09/23 11:46:47;;;;;;;10.48;3.78;;;;;;;17.10;60.39;101578.44;5035040;28;20500;-58
2022/09/23 11:49:16;;;;;;;5.53;3.40;;;;;;;17.14;60.16;101577.66;5027427;28;20029;-57
2022/09/23 11:52:00;;;;;;;6.88;3.42;;;;;;;17.24;60.94;101573.44;5029097;28;20029;-57